Artesia Camp, New Mexico
Current Conditions -  °F | °C
As of 4:58 AM on Saturday 01 Nov 2014 (Local Time) from KHMN Reporting Station
Clear Clear  
Wind Chill: 46°   Ceiling: Unl
Heat Index: 48°   Visibility: 10mi
Dew Point: 36°   Wind: 6mph
Humidity: 61%   Direction: 40°NE
Pressure: 30.16"   Gusts: NA
Location:  32.7847°N, 105.644°W
Report Text: KHMN 011058Z AUTO 04005KT 10SM CLR 09/02 A3016 RMK AO2 SLP167 T00910020 $
Loading
Personal Weather Stations






























Interactive Weather Map
Tropical Storm Tracking
New forecast layout! Learn more

10-Day Weather Forecast

Advertisements
Track Severe Weather on mobile